sensor_id;sensor_type;location;lat;lon;timestamp;P1;durP1;ratioP1;P2;durP2;ratioP2
50225;SDS011;36113;50.742;6.432;2023-05-07T00:00:45;1.77;;;1.27;;
50225;SDS011;36113;50.742;6.432;2023-05-07T00:03:10;2.15;;;1.15;;
50225;SDS011;36113;50.742;6.432;2023-05-07T00:05:36;1.73;;;1.40;;
50225;SDS011;36113;50.742;6.432;2023-05-07T00:08:02;1.70;;;1.60;;
50225;SDS011;36113;50.742;6.432;2023-05-07T00:10:28;1.73;;;1.33;;
50225;SDS011;36113;50.742;6.432;2023-05-07T00:12:53;3.30;;;1.50;;
50225;SDS011;36113;50.742;6.432;2023-05-07T00:15:19;2.10;;;1.63;;
50225;SDS011;36113;50.742;6.432;2023-05-07T00:17:44;2.22;;;1.70;;
50225;SDS011;36113;50.742;6.432;2023-05-07T00:20:10;1.70;;;1.60;;
50225;SDS011;36113;50.742;6.432;2023-05-07T00:22:35;1.33;;;1.27;;
50225;SDS011;36113;50.742;6.432;2023-05-07T00:25:01;2.20;;;1.20;;
50225;SDS011;36113;50.742;6.432;2023-05-07T00:27:26;1.67;;;1.23;;
50225;SDS011;36113;50.742;6.432;2023-05-07T00:29:51;3.23;;;1.87;;
50225;SDS011;36113;50.742;6.432;2023-05-07T00:32:17;2.28;;;1.20;;
50225;SDS011;36113;50.742;6.432;2023-05-07T00:34:42;5.00;;;1.50;;
50225;SDS011;36113;50.742;6.432;2023-05-07T00:37:08;3.63;;;1.33;;
50225;SDS011;36113;50.742;6.432;2023-05-07T00:39:34;4.63;;;1.47;;
50225;SDS011;36113;50.742;6.432;2023-05-07T00:41:59;4.57;;;1.25;;
50225;SDS011;36113;50.742;6.432;2023-05-07T00:44:25;1.37;;;1.27;;
50225;SDS011;36113;50.742;6.432;2023-05-07T00:46:51;1.50;;;1.40;;
50225;SDS011;36113;50.742;6.432;2023-05-07T00:49:16;1.50;;;1.40;;
50225;SDS011;36113;50.742;6.432;2023-05-07T00:51:43;4.05;;;1.40;;
50225;SDS011;36113;50.742;6.432;2023-05-07T00:54:09;1.33;;;1.23;;
50225;SDS011;36113;50.742;6.432;2023-05-07T00:56:35;1.17;;;1.07;;
50225;SDS011;36113;50.742;6.432;2023-05-07T00:59:01;2.35;;;1.40;;
50225;SDS011;36113;50.742;6.432;2023-05-07T01:01:27;2.22;;;1.48;;
50225;SDS011;36113;50.742;6.432;2023-05-07T01:03:53;3.60;;;1.67;;
50225;SDS011;36113;50.742;6.432;2023-05-07T01:06:18;0.97;;;0.97;;
50225;SDS011;36113;50.742;6.432;2023-05-07T01:08:46;1.55;;;1.40;;
50225;SDS011;36113;50.742;6.432;2023-05-07T01:11:12;1.25;;;1.15;;
50225;SDS011;36113;50.742;6.432;2023-05-07T01:13:38;1.57;;;1.40;;
50225;SDS011;36113;50.742;6.432;2023-05-07T01:18:31;1.33;;;1.20;;
50225;SDS011;36113;50.742;6.432;2023-05-07T01:20:57;1.98;;;1.70;;
50225;SDS011;36113;50.742;6.432;2023-05-07T01:23:24;1.55;;;1.45;;
50225;SDS011;36113;50.742;6.432;2023-05-07T01:25:51;1.40;;;1.40;;
50225;SDS011;36113;50.742;6.432;2023-05-07T01:28:17;2.15;;;1.58;;
50225;SDS011;36113;50.742;6.432;2023-05-07T01:30:43;1.53;;;1.43;;
50225;SDS011;36113;50.742;6.432;2023-05-07T01:33:15;2.92;;;1.10;;
50225;SDS011;36113;50.742;6.432;2023-05-07T01:35:47;3.05;;;1.65;;
50225;SDS011;36113;50.742;6.432;2023-05-07T01:38:15;2.78;;;1.50;;
50225;SDS011;36113;50.742;6.432;2023-05-07T01:40:41;2.10;;;1.30;;
50225;SDS011;36113;50.742;6.432;2023-05-07T01:43:07;1.47;;;1.33;;
50225;SDS011;36113;50.742;6.432;2023-05-07T01:47:59;1.60;;;1.50;;
50225;SDS011;36113;50.742;6.432;2023-05-07T01:52:52;1.73;;;1.63;;
50225;SDS011;36113;50.742;6.432;2023-05-07T01:55:18;7.33;;;1.70;;
50225;SDS011;36113;50.742;6.432;2023-05-07T01:57:43;2.43;;;2.23;;
50225;SDS011;36113;50.742;6.432;2023-05-07T02:00:08;2.13;;;1.90;;
50225;SDS011;36113;50.742;6.432;2023-05-07T02:02:34;2.13;;;2.03;;
50225;SDS011;36113;50.742;6.432;2023-05-07T02:05:00;2.00;;;1.40;;
50225;SDS011;36113;50.742;6.432;2023-05-07T02:07:26;1.88;;;1.67;;
50225;SDS011;36113;50.742;6.432;2023-05-07T02:09:52;1.70;;;1.50;;
50225;SDS011;36113;50.742;6.432;2023-05-07T02:12:17;4.93;;;1.73;;
50225;SDS011;36113;50.742;6.432;2023-05-07T02:14:43;1.73;;;1.33;;
50225;SDS011;36113;50.742;6.432;2023-05-07T02:17:08;1.55;;;1.48;;
50225;SDS011;36113;50.742;6.432;2023-05-07T02:19:33;1.70;;;1.60;;
50225;SDS011;36113;50.742;6.432;2023-05-07T02:21:59;1.90;;;1.60;;
50225;SDS011;36113;50.742;6.432;2023-05-07T02:24:24;1.90;;;1.70;;
50225;SDS011;36113;50.742;6.432;2023-05-07T02:26:49;2.10;;;1.30;;
50225;SDS011;36113;50.742;6.432;2023-05-07T02:29:15;1.43;;;1.43;;
50225;SDS011;36113;50.742;6.432;2023-05-07T02:31:40;2.80;;;1.50;;
50225;SDS011;36113;50.742;6.432;2023-05-07T02:34:05;4.73;;;1.60;;
50225;SDS011;36113;50.742;6.432;2023-05-07T02:36:31;1.77;;;1.60;;
50225;SDS011;36113;50.742;6.432;2023-05-07T02:38:56;1.57;;;1.47;;
50225;SDS011;36113;50.742;6.432;2023-05-07T02:41:21;2.22;;;1.75;;
50225;SDS011;36113;50.742;6.432;2023-05-07T02:43:47;2.87;;;1.77;;
50225;SDS011;36113;50.742;6.432;2023-05-07T02:46:12;1.50;;;1.40;;
50225;SDS011;36113;50.742;6.432;2023-05-07T02:48:37;1.50;;;1.50;;
50225;SDS011;36113;50.742;6.432;2023-05-07T02:51:03;1.33;;;1.30;;
50225;SDS011;36113;50.742;6.432;2023-05-07T02:53:28;2.10;;;1.50;;
50225;SDS011;36113;50.742;6.432;2023-05-07T02:55:57;1.33;;;1.33;;
50225;SDS011;36113;50.742;6.432;2023-05-07T02:58:23;1.95;;;1.50;;
50225;SDS011;36113;50.742;6.432;2023-05-07T03:00:49;2.70;;;1.83;;
50225;SDS011;36113;50.742;6.432;2023-05-07T03:03:14;1.80;;;1.30;;
50225;SDS011;36113;50.742;6.432;2023-05-07T03:05:40;1.30;;;1.20;;
50225;SDS011;36113;50.742;6.432;2023-05-07T03:08:06;2.00;;;1.77;;
50225;SDS011;36113;50.742;6.432;2023-05-07T03:10:32;1.30;;;1.20;;
50225;SDS011;36113;50.742;6.432;2023-05-07T03:12:57;2.00;;;1.30;;
50225;SDS011;36113;50.742;6.432;2023-05-07T03:15:22;1.57;;;1.47;;
50225;SDS011;36113;50.742;6.432;2023-05-07T03:17:48;4.13;;;1.40;;
50225;SDS011;36113;50.742;6.432;2023-05-07T03:20:13;1.67;;;1.40;;
50225;SDS011;36113;50.742;6.432;2023-05-07T03:22:39;1.40;;;1.30;;
50225;SDS011;36113;50.742;6.432;2023-05-07T03:25:05;1.73;;;1.53;;
50225;SDS011;36113;50.742;6.432;2023-05-07T03:27:30;1.23;;;1.17;;
50225;SDS011;36113;50.742;6.432;2023-05-07T03:29:56;1.00;;;1.00;;
50225;SDS011;36113;50.742;6.432;2023-05-07T03:32:21;2.40;;;1.40;;
50225;SDS011;36113;50.742;6.432;2023-05-07T03:34:46;1.57;;;1.40;;
50225;SDS011;36113;50.742;6.432;2023-05-07T03:37:12;2.87;;;1.50;;
50225;SDS011;36113;50.742;6.432;2023-05-07T03:39:37;1.80;;;1.37;;
50225;SDS011;36113;50.742;6.432;2023-05-07T03:42:02;1.30;;;1.27;;
50225;SDS011;36113;50.742;6.432;2023-05-07T03:44:28;4.30;;;1.80;;
50225;SDS011;36113;50.742;6.432;2023-05-07T03:46:53;1.53;;;1.43;;
50225;SDS011;36113;50.742;6.432;2023-05-07T03:49:19;1.70;;;1.33;;
50225;SDS011;36113;50.742;6.432;2023-05-07T03:51:44;7.67;;;1.63;;
50225;SDS011;36113;50.742;6.432;2023-05-07T03:54:09;3.50;;;1.60;;
50225;SDS011;36113;50.742;6.432;2023-05-07T03:56:34;2.47;;;1.70;;
50225;SDS011;36113;50.742;6.432;2023-05-07T03:59:00;2.83;;;1.60;;
50225;SDS011;36113;50.742;6.432;2023-05-07T04:01:26;4.23;;;1.70;;
50225;SDS011;36113;50.742;6.432;2023-05-07T04:03:51;4.03;;;1.85;;
50225;SDS011;36113;50.742;6.432;2023-05-07T04:06:16;2.08;;;1.90;;
50225;SDS011;36113;50.742;6.432;2023-05-07T04:08:42;1.77;;;1.67;;
50225;SDS011;36113;50.742;6.432;2023-05-07T04:11:07;1.20;;;1.20;;
50225;SDS011;36113;50.742;6.432;2023-05-07T04:13:33;1.30;;;1.30;;
50225;SDS011;36113;50.742;6.432;2023-05-07T04:15:58;3.70;;;1.33;;
50225;SDS011;36113;50.742;6.432;2023-05-07T04:18:23;1.45;;;1.45;;
50225;SDS011;36113;50.742;6.432;2023-05-07T04:20:49;1.63;;;1.53;;
50225;SDS011;36113;50.742;6.432;2023-05-07T04:23:14;2.07;;;1.50;;
50225;SDS011;36113;50.742;6.432;2023-05-07T04:25:40;1.70;;;1.60;;
50225;SDS011;36113;50.742;6.432;2023-05-07T04:28:06;1.47;;;1.37;;
50225;SDS011;36113;50.742;6.432;2023-05-07T04:30:32;2.35;;;1.67;;
50225;SDS011;36113;50.742;6.432;2023-05-07T04:32:57;1.87;;;1.70;;
50225;SDS011;36113;50.742;6.432;2023-05-07T04:35:22;2.40;;;1.60;;
50225;SDS011;36113;50.742;6.432;2023-05-07T04:37:47;2.20;;;2.00;;
50225;SDS011;36113;50.742;6.432;2023-05-07T04:40:13;3.33;;;2.10;;
50225;SDS011;36113;50.742;6.432;2023-05-07T04:42:38;2.53;;;2.33;;
50225;SDS011;36113;50.742;6.432;2023-05-07T04:45:04;2.40;;;2.30;;
50225;SDS011;36113;50.742;6.432;2023-05-07T04:47:30;3.50;;;2.73;;
50225;SDS011;36113;50.742;6.432;2023-05-07T04:49:55;3.07;;;2.53;;
50225;SDS011;36113;50.742;6.432;2023-05-07T04:52:20;2.67;;;2.13;;
50225;SDS011;36113;50.742;6.432;2023-05-07T04:54:46;4.22;;;3.13;;
50225;SDS011;36113;50.742;6.432;2023-05-07T04:57:11;3.70;;;2.33;;
50225;SDS011;36113;50.742;6.432;2023-05-07T04:59:36;3.13;;;2.77;;
50225;SDS011;36113;50.742;6.432;2023-05-07T05:02:02;3.53;;;2.92;;
50225;SDS011;36113;50.742;6.432;2023-05-07T05:04:29;4.85;;;3.08;;
50225;SDS011;36113;50.742;6.432;2023-05-07T05:06:54;3.53;;;3.30;;
50225;SDS011;36113;50.742;6.432;2023-05-07T05:09:19;3.50;;;3.20;;
50225;SDS011;36113;50.742;6.432;2023-05-07T05:11:45;3.67;;;3.37;;
50225;SDS011;36113;50.742;6.432;2023-05-07T05:14:10;3.45;;;3.20;;
50225;SDS011;36113;50.742;6.432;2023-05-07T05:16:35;5.10;;;3.95;;
50225;SDS011;36113;50.742;6.432;2023-05-07T05:19:01;4.18;;;3.83;;
50225;SDS011;36113;50.742;6.432;2023-05-07T05:21:27;3.75;;;3.47;;
50225;SDS011;36113;50.742;6.432;2023-05-07T05:23:52;3.53;;;3.33;;
50225;SDS011;36113;50.742;6.432;2023-05-07T05:26:18;7.03;;;3.40;;
50225;SDS011;36113;50.742;6.432;2023-05-07T05:28:43;4.50;;;3.73;;
50225;SDS011;36113;50.742;6.432;2023-05-07T05:31:09;3.30;;;3.10;;
50225;SDS011;36113;50.742;6.432;2023-05-07T05:33:35;3.07;;;2.97;;
50225;SDS011;36113;50.742;6.432;2023-05-07T05:36:00;2.47;;;2.28;;
50225;SDS011;36113;50.742;6.432;2023-05-07T05:38:26;6.03;;;2.92;;
50225;SDS011;36113;50.742;6.432;2023-05-07T05:40:51;3.13;;;2.83;;
50225;SDS011;36113;50.742;6.432;2023-05-07T05:43:16;3.85;;;3.40;;
50225;SDS011;36113;50.742;6.432;2023-05-07T05:45:42;3.53;;;2.50;;
50225;SDS011;36113;50.742;6.432;2023-05-07T05:48:07;6.15;;;2.83;;
50225;SDS011;36113;50.742;6.432;2023-05-07T05:50:33;3.30;;;3.00;;
50225;SDS011;36113;50.742;6.432;2023-05-07T05:53:00;3.10;;;2.85;;
50225;SDS011;36113;50.742;6.432;2023-05-07T05:55:26;2.60;;;2.03;;
50225;SDS011;36113;50.742;6.432;2023-05-07T05:57:51;2.78;;;2.55;;
50225;SDS011;36113;50.742;6.432;2023-05-07T06:00:17;2.57;;;2.20;;
50225;SDS011;36113;50.742;6.432;2023-05-07T06:02:43;2.37;;;2.27;;
50225;SDS011;36113;50.742;6.432;2023-05-07T06:05:08;3.97;;;2.60;;
50225;SDS011;36113;50.742;6.432;2023-05-07T06:07:34;3.83;;;2.60;;
50225;SDS011;36113;50.742;6.432;2023-05-07T06:10:00;2.97;;;2.60;;
50225;SDS011;36113;50.742;6.432;2023-05-07T06:12:25;2.40;;;2.30;;
50225;SDS011;36113;50.742;6.432;2023-05-07T06:14:51;3.23;;;2.67;;
50225;SDS011;36113;50.742;6.432;2023-05-07T06:17:17;3.80;;;2.50;;
50225;SDS011;36113;50.742;6.432;2023-05-07T06:19:42;2.80;;;2.60;;
50225;SDS011;36113;50.742;6.432;2023-05-07T06:22:07;2.77;;;2.67;;
50225;SDS011;36113;50.742;6.432;2023-05-07T06:24:33;2.90;;;2.40;;
50225;SDS011;36113;50.742;6.432;2023-05-07T06:26:58;3.63;;;2.50;;
50225;SDS011;36113;50.742;6.432;2023-05-07T06:29:23;2.57;;;2.20;;
50225;SDS011;36113;50.742;6.432;2023-05-07T06:31:51;2.58;;;2.38;;
50225;SDS011;36113;50.742;6.432;2023-05-07T06:34:19;2.20;;;2.10;;
50225;SDS011;36113;50.742;6.432;2023-05-07T06:36:44;4.00;;;2.10;;
50225;SDS011;36113;50.742;6.432;2023-05-07T06:39:09;3.47;;;2.70;;
50225;SDS011;36113;50.742;6.432;2023-05-07T06:41:35;2.50;;;2.40;;
50225;SDS011;36113;50.742;6.432;2023-05-07T06:44:01;1.97;;;1.83;;
50225;SDS011;36113;50.742;6.432;2023-05-07T06:48:53;3.88;;;1.83;;
50225;SDS011;36113;50.742;6.432;2023-05-07T06:51:18;2.50;;;2.23;;
50225;SDS011;36113;50.742;6.432;2023-05-07T06:53:43;2.77;;;2.50;;
50225;SDS011;36113;50.742;6.432;2023-05-07T06:56:08;2.23;;;2.00;;
50225;SDS011;36113;50.742;6.432;2023-05-07T06:58:34;3.47;;;2.40;;
50225;SDS011;36113;50.742;6.432;2023-05-07T07:00:59;2.20;;;2.10;;
50225;SDS011;36113;50.742;6.432;2023-05-07T07:03:25;1.90;;;1.80;;
50225;SDS011;36113;50.742;6.432;2023-05-07T07:05:53;2.40;;;2.23;;
50225;SDS011;36113;50.742;6.432;2023-05-07T07:08:19;2.10;;;1.92;;
50225;SDS011;36113;50.742;6.432;2023-05-07T07:10:46;3.53;;;2.30;;
50225;SDS011;36113;50.742;6.432;2023-05-07T07:13:12;2.40;;;2.17;;
50225;SDS011;36113;50.742;6.432;2023-05-07T07:15:37;2.20;;;2.10;;
50225;SDS011;36113;50.742;6.432;2023-05-07T07:18:02;2.23;;;2.13;;
50225;SDS011;36113;50.742;6.432;2023-05-07T07:20:29;2.53;;;1.92;;
50225;SDS011;36113;50.742;6.432;2023-05-07T07:22:54;2.40;;;2.20;;
50225;SDS011;36113;50.742;6.432;2023-05-07T07:25:20;4.50;;;2.00;;
50225;SDS011;36113;50.742;6.432;2023-05-07T07:27:45;2.27;;;2.17;;
50225;SDS011;36113;50.742;6.432;2023-05-07T07:30:10;2.50;;;2.40;;
50225;SDS011;36113;50.742;6.432;2023-05-07T07:32:36;3.93;;;2.47;;
50225;SDS011;36113;50.742;6.432;2023-05-07T07:35:02;2.83;;;2.57;;
50225;SDS011;36113;50.742;6.432;2023-05-07T07:37:27;2.87;;;2.20;;
50225;SDS011;36113;50.742;6.432;2023-05-07T07:39:53;3.37;;;2.40;;
50225;SDS011;36113;50.742;6.432;2023-05-07T07:42:18;4.60;;;2.30;;
50225;SDS011;36113;50.742;6.432;2023-05-07T07:44:43;2.00;;;1.90;;
50225;SDS011;36113;50.742;6.432;2023-05-07T07:47:09;2.93;;;2.03;;
50225;SDS011;36113;50.742;6.432;2023-05-07T07:49:34;2.50;;;2.30;;
50225;SDS011;36113;50.742;6.432;2023-05-07T07:52:00;1.80;;;1.70;;
50225;SDS011;36113;50.742;6.432;2023-05-07T07:54:25;5.03;;;2.00;;
50225;SDS011;36113;50.742;6.432;2023-05-07T07:56:51;1.87;;;1.70;;
50225;SDS011;36113;50.742;6.432;2023-05-07T07:59:17;3.43;;;2.10;;
50225;SDS011;36113;50.742;6.432;2023-05-07T08:01:43;3.35;;;1.70;;
50225;SDS011;36113;50.742;6.432;2023-05-07T08:04:10;1.67;;;1.58;;
50225;SDS011;36113;50.742;6.432;2023-05-07T08:06:35;1.70;;;1.60;;
50225;SDS011;36113;50.742;6.432;2023-05-07T08:09:01;2.60;;;2.20;;
50225;SDS011;36113;50.742;6.432;2023-05-07T08:11:27;3.25;;;1.98;;
50225;SDS011;36113;50.742;6.432;2023-05-07T08:13:53;3.40;;;2.33;;
50225;SDS011;36113;50.742;6.432;2023-05-07T08:16:19;2.13;;;1.90;;
50225;SDS011;36113;50.742;6.432;2023-05-07T08:18:45;3.20;;;2.33;;
50225;SDS011;36113;50.742;6.432;2023-05-07T08:21:10;2.70;;;2.30;;
50225;SDS011;36113;50.742;6.432;2023-05-07T08:23:36;2.93;;;2.17;;
50225;SDS011;36113;50.742;6.432;2023-05-07T08:26:01;4.27;;;2.13;;
50225;SDS011;36113;50.742;6.432;2023-05-07T08:28:26;5.70;;;2.60;;
50225;SDS011;36113;50.742;6.432;2023-05-07T08:30:52;3.33;;;2.03;;
50225;SDS011;36113;50.742;6.432;2023-05-07T08:33:17;3.23;;;3.00;;
50225;SDS011;36113;50.742;6.432;2023-05-07T08:35:42;3.00;;;2.70;;
50225;SDS011;36113;50.742;6.432;2023-05-07T08:38:08;3.17;;;2.97;;
50225;SDS011;36113;50.742;6.432;2023-05-07T08:40:35;5.00;;;2.40;;
50225;SDS011;36113;50.742;6.432;2023-05-07T08:43:02;2.97;;;2.63;;
50225;SDS011;36113;50.742;6.432;2023-05-07T08:45:31;5.13;;;2.55;;
50225;SDS011;36113;50.742;6.432;2023-05-07T08:47:58;3.97;;;2.53;;
50225;SDS011;36113;50.742;6.432;2023-05-07T08:50:26;3.20;;;2.20;;
50225;SDS011;36113;50.742;6.432;2023-05-07T08:52:52;2.10;;;1.97;;
50225;SDS011;36113;50.742;6.432;2023-05-07T08:55:17;2.43;;;2.23;;
50225;SDS011;36113;50.742;6.432;2023-05-07T08:57:43;3.03;;;2.40;;
50225;SDS011;36113;50.742;6.432;2023-05-07T09:00:09;3.03;;;2.00;;
50225;SDS011;36113;50.742;6.432;2023-05-07T09:02:35;3.72;;;2.05;;
50225;SDS011;36113;50.742;6.432;2023-05-07T09:05:01;2.00;;;1.90;;
50225;SDS011;36113;50.742;6.432;2023-05-07T09:07:26;6.53;;;2.50;;
50225;SDS011;36113;50.742;6.432;2023-05-07T09:09:52;3.60;;;2.17;;
50225;SDS011;36113;50.742;6.432;2023-05-07T09:12:20;2.13;;;2.00;;
50225;SDS011;36113;50.742;6.432;2023-05-07T09:14:46;2.20;;;1.90;;
50225;SDS011;36113;50.742;6.432;2023-05-07T09:17:12;2.07;;;1.87;;
50225;SDS011;36113;50.742;6.432;2023-05-07T09:19:37;3.60;;;2.07;;
50225;SDS011;36113;50.742;6.432;2023-05-07T09:22:03;2.97;;;2.07;;
50225;SDS011;36113;50.742;6.432;2023-05-07T09:24:30;2.30;;;2.20;;
50225;SDS011;36113;50.742;6.432;2023-05-07T09:27:00;4.65;;;1.95;;
50225;SDS011;36113;50.742;6.432;2023-05-07T09:29:26;2.30;;;2.10;;
50225;SDS011;36113;50.742;6.432;2023-05-07T09:31:53;3.70;;;2.20;;
50225;SDS011;36113;50.742;6.432;2023-05-07T09:34:19;2.20;;;2.00;;
50225;SDS011;36113;50.742;6.432;2023-05-07T09:36:45;3.47;;;2.67;;
50225;SDS011;36113;50.742;6.432;2023-05-07T09:39:10;2.10;;;2.00;;
50225;SDS011;36113;50.742;6.432;2023-05-07T09:41:48;2.50;;;2.30;;
50225;SDS011;36113;50.742;6.432;2023-05-07T09:44:19;2.88;;;2.47;;
50225;SDS011;36113;50.742;6.432;2023-05-07T09:46:45;2.42;;;1.98;;
50225;SDS011;36113;50.742;6.432;2023-05-07T09:49:22;3.83;;;2.50;;
50225;SDS011;36113;50.742;6.432;2023-05-07T09:51:49;2.23;;;2.00;;
50225;SDS011;36113;50.742;6.432;2023-05-07T09:54:16;2.45;;;2.22;;
50225;SDS011;36113;50.742;6.432;2023-05-07T09:56:43;5.53;;;2.60;;
50225;SDS011;36113;50.742;6.432;2023-05-07T09:59:10;2.35;;;2.15;;
50225;SDS011;36113;50.742;6.432;2023-05-07T10:01:38;3.38;;;2.20;;
50225;SDS011;36113;50.742;6.432;2023-05-07T10:04:06;2.70;;;2.53;;
50225;SDS011;36113;50.742;6.432;2023-05-07T10:06:33;2.75;;;2.05;;
50225;SDS011;36113;50.742;6.432;2023-05-07T10:11:25;2.53;;;2.22;;
50225;SDS011;36113;50.742;6.432;2023-05-07T10:13:52;4.95;;;2.22;;
50225;SDS011;36113;50.742;6.432;2023-05-07T10:16:18;2.28;;;1.98;;
50225;SDS011;36113;50.742;6.432;2023-05-07T10:18:44;2.60;;;2.37;;
50225;SDS011;36113;50.742;6.432;2023-05-07T10:21:11;2.60;;;2.40;;
50225;SDS011;36113;50.742;6.432;2023-05-07T10:23:51;2.13;;;1.83;;
50225;SDS011;36113;50.742;6.432;2023-05-07T10:26:22;2.67;;;1.95;;
50225;SDS011;36113;50.742;6.432;2023-05-07T10:28:50;2.22;;;1.98;;
50225;SDS011;36113;50.742;6.432;2023-05-07T10:34:20;1.80;;;1.70;;
50225;SDS011;36113;50.742;6.432;2023-05-07T10:36:49;1.98;;;1.70;;
50225;SDS011;36113;50.742;6.432;2023-05-07T10:39:16;3.65;;;1.95;;
50225;SDS011;36113;50.742;6.432;2023-05-07T10:41:42;2.40;;;2.20;;
50225;SDS011;36113;50.742;6.432;2023-05-07T10:44:08;2.00;;;1.90;;
50225;SDS011;36113;50.742;6.432;2023-05-07T10:46:33;4.90;;;1.90;;
50225;SDS011;36113;50.742;6.432;2023-05-07T10:51:25;2.27;;;2.07;;
50225;SDS011;36113;50.742;6.432;2023-05-07T10:56:42;2.22;;;1.63;;
50225;SDS011;36113;50.742;6.432;2023-05-07T11:01:55;4.68;;;2.03;;
50225;SDS011;36113;50.742;6.432;2023-05-07T11:04:25;2.20;;;2.10;;
50225;SDS011;36113;50.742;6.432;2023-05-07T11:15:02;2.00;;;1.90;;
50225;SDS011;36113;50.742;6.432;2023-05-07T11:17:29;3.50;;;2.15;;
50225;SDS011;36113;50.742;6.432;2023-05-07T11:19:57;3.53;;;2.20;;
50225;SDS011;36113;50.742;6.432;2023-05-07T11:24:57;2.47;;;2.15;;
50225;SDS011;36113;50.742;6.432;2023-05-07T11:27:24;5.03;;;2.10;;
50225;SDS011;36113;50.742;6.432;2023-05-07T11:32:22;3.08;;;1.98;;
50225;SDS011;36113;50.742;6.432;2023-05-07T11:34:52;2.40;;;2.25;;
50225;SDS011;36113;50.742;6.432;2023-05-07T11:37:18;2.10;;;2.00;;
50225;SDS011;36113;50.742;6.432;2023-05-07T11:39:44;3.45;;;2.67;;
50225;SDS011;36113;50.742;6.432;2023-05-07T11:45:10;3.83;;;3.45;;
50225;SDS011;36113;50.742;6.432;2023-05-07T11:47:35;3.60;;;3.30;;
50225;SDS011;36113;50.742;6.432;2023-05-07T11:50:04;3.77;;;3.47;;
50225;SDS011;36113;50.742;6.432;2023-05-07T11:52:32;7.13;;;3.67;;
50225;SDS011;36113;50.742;6.432;2023-05-07T11:54:58;2.80;;;2.60;;
50225;SDS011;36113;50.742;6.432;2023-05-07T11:57:25;4.25;;;3.85;;
50225;SDS011;36113;50.742;6.432;2023-05-07T11:59:54;3.47;;;3.20;;
50225;SDS011;36113;50.742;6.432;2023-05-07T12:02:20;3.58;;;3.28;;
50225;SDS011;36113;50.742;6.432;2023-05-07T12:04:45;3.70;;;3.37;;
50225;SDS011;36113;50.742;6.432;2023-05-07T12:07:11;4.27;;;3.87;;
50225;SDS011;36113;50.742;6.432;2023-05-07T12:09:38;3.65;;;3.35;;
50225;SDS011;36113;50.742;6.432;2023-05-07T12:12:04;3.63;;;3.30;;
50225;SDS011;36113;50.742;6.432;2023-05-07T12:14:29;3.60;;;3.13;;
50225;SDS011;36113;50.742;6.432;2023-05-07T12:16:55;4.40;;;3.63;;
50225;SDS011;36113;50.742;6.432;2023-05-07T12:19:20;4.07;;;3.67;;
50225;SDS011;36113;50.742;6.432;2023-05-07T12:21:49;4.03;;;3.47;;
50225;SDS011;36113;50.742;6.432;2023-05-07T12:24:14;3.60;;;3.20;;
50225;SDS011;36113;50.742;6.432;2023-05-07T12:26:40;4.10;;;3.10;;
50225;SDS011;36113;50.742;6.432;2023-05-07T12:29:06;4.43;;;3.30;;
50225;SDS011;36113;50.742;6.432;2023-05-07T12:31:31;3.10;;;2.80;;
50225;SDS011;36113;50.742;6.432;2023-05-07T12:33:57;5.20;;;2.80;;
50225;SDS011;36113;50.742;6.432;2023-05-07T12:36:22;2.53;;;2.33;;
50225;SDS011;36113;50.742;6.432;2023-05-07T12:38:49;2.50;;;2.40;;
50225;SDS011;36113;50.742;6.432;2023-05-07T12:41:15;2.25;;;1.92;;
50225;SDS011;36113;50.742;6.432;2023-05-07T12:43:43;1.98;;;1.70;;
50225;SDS011;36113;50.742;6.432;2023-05-07T12:46:09;2.20;;;2.10;;
50225;SDS011;36113;50.742;6.432;2023-05-07T12:48:38;2.33;;;2.23;;
50225;SDS011;36113;50.742;6.432;2023-05-07T12:51:08;2.25;;;2.05;;
50225;SDS011;36113;50.742;6.432;2023-05-07T12:53:39;3.42;;;2.00;;
50225;SDS011;36113;50.742;6.432;2023-05-07T12:56:05;2.50;;;2.40;;
50225;SDS011;36113;50.742;6.432;2023-05-07T12:58:32;4.03;;;3.73;;
50225;SDS011;36113;50.742;6.432;2023-05-07T13:01:00;3.85;;;3.53;;
50225;SDS011;36113;50.742;6.432;2023-05-07T13:03:30;3.30;;;3.00;;
50225;SDS011;36113;50.742;6.432;2023-05-07T13:05:58;7.38;;;3.30;;
50225;SDS011;36113;50.742;6.432;2023-05-07T13:08:26;4.70;;;3.40;;
50225;SDS011;36113;50.742;6.432;2023-05-07T13:11:00;2.20;;;2.10;;
50225;SDS011;36113;50.742;6.432;2023-05-07T13:13:30;2.03;;;1.92;;
50225;SDS011;36113;50.742;6.432;2023-05-07T13:15:56;2.90;;;1.98;;
50225;SDS011;36113;50.742;6.432;2023-05-07T13:18:21;2.53;;;2.33;;
50225;SDS011;36113;50.742;6.432;2023-05-07T13:20:47;2.63;;;2.50;;
50225;SDS011;36113;50.742;6.432;2023-05-07T13:23:12;2.17;;;2.00;;
50225;SDS011;36113;50.742;6.432;2023-05-07T13:25:37;4.40;;;2.57;;
50225;SDS011;36113;50.742;6.432;2023-05-07T13:28:03;2.20;;;2.10;;
50225;SDS011;36113;50.742;6.432;2023-05-07T13:30:29;2.60;;;2.40;;
50225;SDS011;36113;50.742;6.432;2023-05-07T13:32:55;2.90;;;2.70;;
50225;SDS011;36113;50.742;6.432;2023-05-07T13:35:21;2.72;;;2.53;;
50225;SDS011;36113;50.742;6.432;2023-05-07T13:37:46;2.97;;;2.80;;
50225;SDS011;36113;50.742;6.432;2023-05-07T13:42:38;2.38;;;2.25;;
50225;SDS011;36113;50.742;6.432;2023-05-07T13:45:03;2.97;;;2.77;;
50225;SDS011;36113;50.742;6.432;2023-05-07T13:47:30;3.38;;;3.17;;
50225;SDS011;36113;50.742;6.432;2023-05-07T13:49:55;3.07;;;2.83;;
50225;SDS011;36113;50.742;6.432;2023-05-07T13:52:21;4.43;;;3.83;;
50225;SDS011;36113;50.742;6.432;2023-05-07T13:54:46;2.70;;;2.57;;
50225;SDS011;36113;50.742;6.432;2023-05-07T13:57:12;3.17;;;2.97;;
50225;SDS011;36113;50.742;6.432;2023-05-07T13:59:37;2.87;;;2.67;;
50225;SDS011;36113;50.742;6.432;2023-05-07T14:02:02;4.73;;;2.70;;
50225;SDS011;36113;50.742;6.432;2023-05-07T14:04:28;3.20;;;2.90;;
50225;SDS011;36113;50.742;6.432;2023-05-07T14:06:53;3.97;;;2.13;;
50225;SDS011;36113;50.742;6.432;2023-05-07T14:09:18;2.40;;;2.20;;
50225;SDS011;36113;50.742;6.432;2023-05-07T14:11:44;4.37;;;2.93;;
50225;SDS011;36113;50.742;6.432;2023-05-07T14:14:09;2.93;;;2.83;;
50225;SDS011;36113;50.742;6.432;2023-05-07T14:16:35;3.65;;;3.40;;
50225;SDS011;36113;50.742;6.432;2023-05-07T14:19:01;3.80;;;3.30;;
50225;SDS011;36113;50.742;6.432;2023-05-07T14:21:27;2.97;;;2.77;;
50225;SDS011;36113;50.742;6.432;2023-05-07T14:23:52;2.50;;;2.40;;
50225;SDS011;36113;50.742;6.432;2023-05-07T14:26:17;2.87;;;2.67;;
50225;SDS011;36113;50.742;6.432;2023-05-07T14:28:43;3.50;;;2.53;;
50225;SDS011;36113;50.742;6.432;2023-05-07T14:31:11;3.38;;;2.40;;
50225;SDS011;36113;50.742;6.432;2023-05-07T14:33:36;2.60;;;2.40;;
50225;SDS011;36113;50.742;6.432;2023-05-07T14:36:02;2.50;;;1.90;;
50225;SDS011;36113;50.742;6.432;2023-05-07T14:38:28;2.47;;;2.28;;
50225;SDS011;36113;50.742;6.432;2023-05-07T14:40:53;4.10;;;2.27;;
50225;SDS011;36113;50.742;6.432;2023-05-07T14:43:20;3.47;;;2.20;;
50225;SDS011;36113;50.742;6.432;2023-05-07T14:45:46;2.10;;;1.90;;
50225;SDS011;36113;50.742;6.432;2023-05-07T14:48:11;4.10;;;2.07;;
50225;SDS011;36113;50.742;6.432;2023-05-07T14:50:40;2.92;;;2.28;;
50225;SDS011;36113;50.742;6.432;2023-05-07T14:53:08;2.08;;;1.92;;
50225;SDS011;36113;50.742;6.432;2023-05-07T14:55:33;2.37;;;1.90;;
50225;SDS011;36113;50.742;6.432;2023-05-07T14:57:59;2.10;;;1.80;;
50225;SDS011;36113;50.742;6.432;2023-05-07T15:00:25;1.80;;;1.70;;
50225;SDS011;36113;50.742;6.432;2023-05-07T15:02:50;2.07;;;1.97;;
50225;SDS011;36113;50.742;6.432;2023-05-07T15:05:16;4.70;;;1.60;;
50225;SDS011;36113;50.742;6.432;2023-05-07T15:07:43;2.13;;;2.03;;
50225;SDS011;36113;50.742;6.432;2023-05-07T15:10:09;2.30;;;2.20;;
50225;SDS011;36113;50.742;6.432;2023-05-07T15:12:34;4.87;;;2.37;;
50225;SDS011;36113;50.742;6.432;2023-05-07T15:15:00;2.50;;;2.40;;
50225;SDS011;36113;50.742;6.432;2023-05-07T15:17:25;2.93;;;2.73;;
50225;SDS011;36113;50.742;6.432;2023-05-07T15:19:50;3.77;;;2.97;;
50225;SDS011;36113;50.742;6.432;2023-05-07T15:22:16;3.17;;;2.97;;